sensor_id;sensor_type;location;lat;lon;timestamp;P1;durP1;ratioP1;P2;durP2;ratioP2
52618;SDS011;38513;53.234;6.568;2024-02-21T00:01:41;21.80;;;5.70;;
52618;SDS011;38513;53.234;6.568;2024-02-21T00:14:32;23.27;;;5.93;;
52618;SDS011;38513;53.234;6.568;2024-02-21T00:17:28;20.63;;;5.17;;
52618;SDS011;38513;53.234;6.568;2024-02-21T00:20:19;20.07;;;5.87;;
52618;SDS011;38513;53.234;6.568;2024-02-21T00:23:24;19.02;;;5.57;;
52618;SDS011;38513;53.234;6.568;2024-02-21T00:29:12;22.83;;;6.57;;
52618;SDS011;38513;53.234;6.568;2024-02-21T00:38:38;22.48;;;6.43;;
52618;SDS011;38513;53.234;6.568;2024-02-21T00:48:06;27.38;;;6.97;;
52618;SDS011;38513;53.234;6.568;2024-02-21T01:03:16;26.53;;;7.90;;
52618;SDS011;38513;53.234;6.568;2024-02-21T01:06:12;30.17;;;7.97;;
52618;SDS011;38513;53.234;6.568;2024-02-21T01:09:01;27.08;;;8.15;;
52618;SDS011;38513;53.234;6.568;2024-02-21T01:11:37;26.05;;;7.75;;
52618;SDS011;38513;53.234;6.568;2024-02-21T01:14:06;26.65;;;8.25;;
52618;SDS011;38513;53.234;6.568;2024-02-21T01:16:43;26.57;;;8.67;;
52618;SDS011;38513;53.234;6.568;2024-02-21T01:22:31;24.80;;;8.20;;
52618;SDS011;38513;53.234;6.568;2024-02-21T01:38:07;31.77;;;10.23;;
52618;SDS011;38513;53.234;6.568;2024-02-21T01:40:42;33.50;;;10.80;;
52618;SDS011;38513;53.234;6.568;2024-02-21T01:43:29;31.30;;;10.88;;
52618;SDS011;38513;53.234;6.568;2024-02-21T01:46:35;28.15;;;10.90;;
52618;SDS011;38513;53.234;6.568;2024-02-21T01:52:47;31.02;;;11.05;;
52618;SDS011;38513;53.234;6.568;2024-02-21T01:55:40;31.75;;;11.02;;
52618;SDS011;38513;53.234;6.568;2024-02-21T01:58:15;27.23;;;10.23;;
52618;SDS011;38513;53.234;6.568;2024-02-21T02:00:52;27.17;;;11.00;;
52618;SDS011;38513;53.234;6.568;2024-02-21T02:03:33;22.45;;;10.25;;
52618;SDS011;38513;53.234;6.568;2024-02-21T02:06:15;24.80;;;9.82;;
52618;SDS011;38513;53.234;6.568;2024-02-21T02:09:04;28.50;;;10.30;;
52618;SDS011;38513;53.234;6.568;2024-02-21T02:12:04;24.83;;;9.82;;
52618;SDS011;38513;53.234;6.568;2024-02-21T02:14:41;24.65;;;9.80;;
52618;SDS011;38513;53.234;6.568;2024-02-21T02:17:08;27.57;;;9.80;;
52618;SDS011;38513;53.234;6.568;2024-02-21T02:19:40;24.95;;;9.73;;
52618;SDS011;38513;53.234;6.568;2024-02-21T02:22:09;21.98;;;9.60;;
52618;SDS011;38513;53.234;6.568;2024-02-21T02:24:40;25.00;;;9.63;;
52618;SDS011;38513;53.234;6.568;2024-02-21T02:27:15;26.55;;;9.80;;
52618;SDS011;38513;53.234;6.568;2024-02-21T02:29:43;27.27;;;10.10;;
52618;SDS011;38513;53.234;6.568;2024-02-21T02:32:22;28.40;;;9.90;;
52618;SDS011;38513;53.234;6.568;2024-02-21T02:34:57;27.75;;;10.35;;
52618;SDS011;38513;53.234;6.568;2024-02-21T02:37:29;27.08;;;10.60;;
52618;SDS011;38513;53.234;6.568;2024-02-21T02:40:06;27.85;;;9.80;;
52618;SDS011;38513;53.234;6.568;2024-02-21T02:45:37;27.08;;;9.50;;
52618;SDS011;38513;53.234;6.568;2024-02-21T02:48:24;25.75;;;9.50;;
52618;SDS011;38513;53.234;6.568;2024-02-21T02:51:12;27.88;;;9.43;;
52618;SDS011;38513;53.234;6.568;2024-02-21T02:53:51;32.47;;;9.93;;
52618;SDS011;38513;53.234;6.568;2024-02-21T02:56:25;33.90;;;10.35;;
52618;SDS011;38513;53.234;6.568;2024-02-21T02:59:04;30.63;;;10.33;;
52618;SDS011;38513;53.234;6.568;2024-02-21T03:04:12;35.72;;;10.13;;
52618;SDS011;38513;53.234;6.568;2024-02-21T03:06:47;35.05;;;10.02;;
52618;SDS011;38513;53.234;6.568;2024-02-21T03:09:33;32.33;;;10.43;;
52618;SDS011;38513;53.234;6.568;2024-02-21T03:15:24;33.03;;;10.20;;
52618;SDS011;38513;53.234;6.568;2024-02-21T03:21:12;33.15;;;10.23;;
52618;SDS011;38513;53.234;6.568;2024-02-21T03:23:49;32.90;;;9.85;;
52618;SDS011;38513;53.234;6.568;2024-02-21T03:26:21;37.55;;;10.27;;
52618;SDS011;38513;53.234;6.568;2024-02-21T03:32:08;38.78;;;9.50;;
52618;SDS011;38513;53.234;6.568;2024-02-21T03:35:05;36.60;;;9.80;;
52618;SDS011;38513;53.234;6.568;2024-02-21T03:37:40;34.15;;;9.82;;
52618;SDS011;38513;53.234;6.568;2024-02-21T03:40:19;40.65;;;10.48;;
52618;SDS011;38513;53.234;6.568;2024-02-21T03:42:53;36.03;;;10.05;;
52618;SDS011;38513;53.234;6.568;2024-02-21T03:45:38;35.50;;;10.45;;
52618;SDS011;38513;53.234;6.568;2024-02-21T03:48:10;38.13;;;10.18;;
52618;SDS011;38513;53.234;6.568;2024-02-21T03:50:48;38.90;;;10.27;;
52618;SDS011;38513;53.234;6.568;2024-02-21T03:53:35;32.45;;;9.80;;
52618;SDS011;38513;53.234;6.568;2024-02-21T03:56:26;38.72;;;10.25;;
52618;SDS011;38513;53.234;6.568;2024-02-21T03:58:52;37.30;;;9.60;;
52618;SDS011;38513;53.234;6.568;2024-02-21T04:01:27;36.72;;;9.70;;
52618;SDS011;38513;53.234;6.568;2024-02-21T04:03:56;37.28;;;9.73;;
52618;SDS011;38513;53.234;6.568;2024-02-21T04:06:25;41.23;;;10.83;;
52618;SDS011;38513;53.234;6.568;2024-02-21T04:09:07;41.60;;;10.70;;
52618;SDS011;38513;53.234;6.568;2024-02-21T04:11:37;44.70;;;12.65;;
52618;SDS011;38513;53.234;6.568;2024-02-21T04:14:20;34.33;;;11.02;;
52618;SDS011;38513;53.234;6.568;2024-02-21T04:19:55;43.45;;;12.00;;
52618;SDS011;38513;53.234;6.568;2024-02-21T04:25:32;36.95;;;11.65;;
52618;SDS011;38513;53.234;6.568;2024-02-21T04:28:06;38.70;;;11.82;;
52618;SDS011;38513;53.234;6.568;2024-02-21T04:37:09;38.60;;;11.02;;
52618;SDS011;38513;53.234;6.568;2024-02-21T04:39:59;34.03;;;11.35;;
52618;SDS011;38513;53.234;6.568;2024-02-21T04:45:24;36.75;;;10.52;;
52618;SDS011;38513;53.234;6.568;2024-02-21T04:47:59;35.42;;;10.00;;
52618;SDS011;38513;53.234;6.568;2024-02-21T04:50:36;39.95;;;10.27;;
52618;SDS011;38513;53.234;6.568;2024-02-21T04:53:12;37.15;;;10.57;;
52618;SDS011;38513;53.234;6.568;2024-02-21T04:55:48;37.30;;;10.18;;
52618;SDS011;38513;53.234;6.568;2024-02-21T04:58:38;35.50;;;10.30;;
52618;SDS011;38513;53.234;6.568;2024-02-21T05:01:12;37.15;;;10.32;;
52618;SDS011;38513;53.234;6.568;2024-02-21T05:03:50;35.55;;;10.35;;
52618;SDS011;38513;53.234;6.568;2024-02-21T05:06:19;35.13;;;10.80;;
52618;SDS011;38513;53.234;6.568;2024-02-21T05:11:39;39.30;;;10.63;;
52618;SDS011;38513;53.234;6.568;2024-02-21T05:14:14;40.15;;;11.02;;
52618;SDS011;38513;53.234;6.568;2024-02-21T05:16:54;42.33;;;11.05;;
52618;SDS011;38513;53.234;6.568;2024-02-21T05:19:52;39.17;;;10.38;;
52618;SDS011;38513;53.234;6.568;2024-02-21T05:22:27;38.13;;;10.27;;
52618;SDS011;38513;53.234;6.568;2024-02-21T05:25:04;40.53;;;10.77;;
52618;SDS011;38513;53.234;6.568;2024-02-21T05:27:49;38.50;;;10.40;;
52618;SDS011;38513;53.234;6.568;2024-02-21T05:30:26;39.95;;;10.68;;
52618;SDS011;38513;53.234;6.568;2024-02-21T05:32:55;34.47;;;10.23;;
52618;SDS011;38513;53.234;6.568;2024-02-21T05:38:44;40.33;;;11.15;;
52618;SDS011;38513;53.234;6.568;2024-02-21T05:41:23;38.33;;;10.68;;
52618;SDS011;38513;53.234;6.568;2024-02-21T05:44:16;39.33;;;10.80;;
52618;SDS011;38513;53.234;6.568;2024-02-21T05:50:09;42.67;;;11.30;;
52618;SDS011;38513;53.234;6.568;2024-02-21T05:53:06;38.00;;;11.18;;
52618;SDS011;38513;53.234;6.568;2024-02-21T05:55:40;35.80;;;10.27;;
52618;SDS011;38513;53.234;6.568;2024-02-21T06:01:05;38.40;;;11.25;;
52618;SDS011;38513;53.234;6.568;2024-02-21T06:03:44;38.03;;;10.35;;
52618;SDS011;38513;53.234;6.568;2024-02-21T06:06:14;39.25;;;11.25;;
52618;SDS011;38513;53.234;6.568;2024-02-21T06:08:47;42.00;;;11.68;;
52618;SDS011;38513;53.234;6.568;2024-02-21T06:11:29;37.85;;;11.60;;
52618;SDS011;38513;53.234;6.568;2024-02-21T06:14:03;36.47;;;11.70;;
52618;SDS011;38513;53.234;6.568;2024-02-21T06:16:43;35.85;;;11.27;;
52618;SDS011;38513;53.234;6.568;2024-02-21T06:19:11;37.60;;;11.63;;
52618;SDS011;38513;53.234;6.568;2024-02-21T06:21:52;40.40;;;11.88;;
52618;SDS011;38513;53.234;6.568;2024-02-21T06:24:38;38.03;;;12.68;;
52618;SDS011;38513;53.234;6.568;2024-02-21T06:27:28;35.05;;;11.57;;
52618;SDS011;38513;53.234;6.568;2024-02-21T06:30:09;38.72;;;11.43;;
52618;SDS011;38513;53.234;6.568;2024-02-21T06:36:11;39.17;;;12.43;;
52618;SDS011;38513;53.234;6.568;2024-02-21T06:39:07;38.55;;;12.18;;
52618;SDS011;38513;53.234;6.568;2024-02-21T06:44:46;39.25;;;12.65;;
52618;SDS011;38513;53.234;6.568;2024-02-21T06:51:00;37.60;;;12.13;;
52618;SDS011;38513;53.234;6.568;2024-02-21T06:53:49;36.67;;;12.75;;
52618;SDS011;38513;53.234;6.568;2024-02-21T07:12:34;38.60;;;13.55;;
52618;SDS011;38513;53.234;6.568;2024-02-21T07:22:22;46.30;;;15.25;;
52618;SDS011;38513;53.234;6.568;2024-02-21T07:25:08;46.47;;;16.17;;
52618;SDS011;38513;53.234;6.568;2024-02-21T07:28:05;61.60;;;20.57;;
52618;SDS011;38513;53.234;6.568;2024-02-21T07:31:04;59.47;;;20.67;;
52618;SDS011;38513;53.234;6.568;2024-02-21T07:34:02;65.80;;;24.63;;
52618;SDS011;38513;53.234;6.568;2024-02-21T07:36:59;71.85;;;25.70;;
52618;SDS011;38513;53.234;6.568;2024-02-21T07:39:38;74.60;;;26.05;;
52618;SDS011;38513;53.234;6.568;2024-02-21T07:42:24;79.47;;;26.60;;
52618;SDS011;38513;53.234;6.568;2024-02-21T07:48:00;80.25;;;27.45;;
52618;SDS011;38513;53.234;6.568;2024-02-21T07:50:59;75.63;;;26.92;;
52618;SDS011;38513;53.234;6.568;2024-02-21T07:54:03;69.57;;;25.48;;
52618;SDS011;38513;53.234;6.568;2024-02-21T07:56:38;73.43;;;24.50;;
52618;SDS011;38513;53.234;6.568;2024-02-21T07:59:07;69.82;;;24.08;;
52618;SDS011;38513;53.234;6.568;2024-02-21T08:01:56;65.13;;;21.00;;
52618;SDS011;38513;53.234;6.568;2024-02-21T08:07:59;45.45;;;15.77;;
52618;SDS011;38513;53.234;6.568;2024-02-21T08:13:51;38.40;;;13.32;;
52618;SDS011;38513;53.234;6.568;2024-02-21T08:16:37;39.30;;;12.70;;
52618;SDS011;38513;53.234;6.568;2024-02-21T08:19:30;35.93;;;12.50;;
52618;SDS011;38513;53.234;6.568;2024-02-21T08:22:02;33.67;;;11.53;;
52618;SDS011;38513;53.234;6.568;2024-02-21T08:24:43;35.17;;;10.85;;
52618;SDS011;38513;53.234;6.568;2024-02-21T08:30:31;31.48;;;9.70;;
52618;SDS011;38513;53.234;6.568;2024-02-21T08:33:24;32.33;;;9.97;;
52618;SDS011;38513;53.234;6.568;2024-02-21T08:36:23;25.80;;;9.90;;
52618;SDS011;38513;53.234;6.568;2024-02-21T08:41:58;29.47;;;10.37;;
52618;SDS011;38513;53.234;6.568;2024-02-21T08:44:44;33.90;;;10.38;;
52618;SDS011;38513;53.234;6.568;2024-02-21T08:47:19;34.45;;;10.63;;
52618;SDS011;38513;53.234;6.568;2024-02-21T08:53:05;30.20;;;10.93;;
52618;SDS011;38513;53.234;6.568;2024-02-21T08:58:37;29.27;;;10.18;;
52618;SDS011;38513;53.234;6.568;2024-02-21T09:07:56;37.23;;;13.63;;
52618;SDS011;38513;53.234;6.568;2024-02-21T09:10:45;29.53;;;13.73;;
52618;SDS011;38513;53.234;6.568;2024-02-21T09:13:51;32.17;;;14.43;;
52618;SDS011;38513;53.234;6.568;2024-02-21T09:16:41;30.75;;;14.35;;
52618;SDS011;38513;53.234;6.568;2024-02-21T09:22:38;34.75;;;16.90;;
52618;SDS011;38513;53.234;6.568;2024-02-21T09:25:55;37.65;;;17.67;;
52618;SDS011;38513;53.234;6.568;2024-02-21T09:28:53;38.35;;;18.80;;
52618;SDS011;38513;53.234;6.568;2024-02-21T09:31:42;32.30;;;19.13;;
52618;SDS011;38513;53.234;6.568;2024-02-21T09:34:36;40.78;;;20.02;;
52618;SDS011;38513;53.234;6.568;2024-02-21T09:37:12;36.40;;;20.25;;
52618;SDS011;38513;53.234;6.568;2024-02-21T09:40:27;34.28;;;20.30;;
52618;SDS011;38513;53.234;6.568;2024-02-21T09:43:28;35.35;;;20.80;;
52618;SDS011;38513;53.234;6.568;2024-02-21T09:46:39;35.15;;;20.15;;
52618;SDS011;38513;53.234;6.568;2024-02-21T09:52:23;35.83;;;21.00;;
52618;SDS011;38513;53.234;6.568;2024-02-21T09:58:21;36.10;;;21.13;;
52618;SDS011;38513;53.234;6.568;2024-02-21T10:01:16;35.50;;;21.10;;
52618;SDS011;38513;53.234;6.568;2024-02-21T10:04:03;35.65;;;21.27;;
52618;SDS011;38513;53.234;6.568;2024-02-21T10:06:36;35.30;;;21.10;;
52618;SDS011;38513;53.234;6.568;2024-02-21T10:12:23;32.08;;;19.70;;
52618;SDS011;38513;53.234;6.568;2024-02-21T10:15:06;30.98;;;19.80;;
52618;SDS011;38513;53.234;6.568;2024-02-21T10:17:57;34.28;;;21.33;;
52618;SDS011;38513;53.234;6.568;2024-02-21T10:20:44;32.65;;;20.02;;
52618;SDS011;38513;53.234;6.568;2024-02-21T10:23:42;31.90;;;19.98;;
52618;SDS011;38513;53.234;6.568;2024-02-21T10:26:22;30.33;;;20.58;;
52618;SDS011;38513;53.234;6.568;2024-02-21T10:33:10;33.70;;;21.33;;
52618;SDS011;38513;53.234;6.568;2024-02-21T10:35:37;30.67;;;20.73;;
52618;SDS011;38513;53.234;6.568;2024-02-21T10:41:28;35.00;;;22.37;;
52618;SDS011;38513;53.234;6.568;2024-02-21T10:44:17;35.42;;;23.15;;
52618;SDS011;38513;53.234;6.568;2024-02-21T10:46:49;33.40;;;22.60;;
52618;SDS011;38513;53.234;6.568;2024-02-21T10:49:50;31.77;;;23.65;;
52618;SDS011;38513;53.234;6.568;2024-02-21T11:15:36;32.70;;;22.08;;
52618;SDS011;38513;53.234;6.568;2024-02-21T11:18:30;32.10;;;21.92;;
52618;SDS011;38513;53.234;6.568;2024-02-21T11:21:40;29.63;;;21.60;;
52618;SDS011;38513;53.234;6.568;2024-02-21T11:28:32;27.08;;;21.13;;
52618;SDS011;38513;53.234;6.568;2024-02-21T11:37:28;27.80;;;19.02;;
52618;SDS011;38513;53.234;6.568;2024-02-21T11:40:16;28.08;;;19.17;;
52618;SDS011;38513;53.234;6.568;2024-02-21T11:43:01;23.98;;;17.17;;
52618;SDS011;38513;53.234;6.568;2024-02-21T11:48:31;23.30;;;17.00;;
52618;SDS011;38513;53.234;6.568;2024-02-21T11:51:08;25.67;;;17.63;;
52618;SDS011;38513;53.234;6.568;2024-02-21T11:57:19;22.08;;;15.65;;
52618;SDS011;38513;53.234;6.568;2024-02-21T12:00:30;22.30;;;15.48;;
52618;SDS011;38513;53.234;6.568;2024-02-21T12:06:10;25.57;;;16.30;;
52618;SDS011;38513;53.234;6.568;2024-02-21T12:08:50;21.35;;;15.43;;
52618;SDS011;38513;53.234;6.568;2024-02-21T12:11:32;25.80;;;15.98;;
52618;SDS011;38513;53.234;6.568;2024-02-21T12:20:11;24.15;;;14.73;;
52618;SDS011;38513;53.234;6.568;2024-02-21T12:23:18;21.67;;;13.95;;
52618;SDS011;38513;53.234;6.568;2024-02-21T12:26:13;22.42;;;14.57;;
52618;SDS011;38513;53.234;6.568;2024-02-21T12:28:56;21.83;;;13.85;;
52618;SDS011;38513;53.234;6.568;2024-02-21T12:32:06;22.85;;;13.70;;
52618;SDS011;38513;53.234;6.568;2024-02-21T12:34:46;20.63;;;12.73;;
52618;SDS011;38513;53.234;6.568;2024-02-21T12:37:25;20.08;;;12.30;;
52618;SDS011;38513;53.234;6.568;2024-02-21T12:44:05;18.83;;;12.18;;
52618;SDS011;38513;53.234;6.568;2024-02-21T12:47:12;21.03;;;12.13;;
52618;SDS011;38513;53.234;6.568;2024-02-21T12:50:15;16.38;;;11.95;;
52618;SDS011;38513;53.234;6.568;2024-02-21T13:03:12;18.25;;;10.90;;
52618;SDS011;38513;53.234;6.568;2024-02-21T13:13:21;18.15;;;10.88;;
52618;SDS011;38513;53.234;6.568;2024-02-21T13:25:45;15.70;;;9.70;;
52618;SDS011;38513;53.234;6.568;2024-02-21T13:28:37;15.55;;;9.35;;
52618;SDS011;38513;53.234;6.568;2024-02-21T13:40:41;13.70;;;8.75;;
52618;SDS011;38513;53.234;6.568;2024-02-21T13:43:18;13.35;;;8.63;;
52618;SDS011;38513;53.234;6.568;2024-02-21T13:45:56;12.85;;;7.78;;
52618;SDS011;38513;53.234;6.568;2024-02-21T13:52:07;12.20;;;7.55;;
52618;SDS011;38513;53.234;6.568;2024-02-21T13:54:54;12.52;;;7.50;;
52618;SDS011;38513;53.234;6.568;2024-02-21T13:57:57;13.70;;;7.82;;
52618;SDS011;38513;53.234;6.568;2024-02-21T14:00:32;11.88;;;7.95;;
52618;SDS011;38513;53.234;6.568;2024-02-21T14:06:02;11.20;;;7.00;;
52618;SDS011;38513;53.234;6.568;2024-02-21T14:08:55;10.95;;;7.32;;
52618;SDS011;38513;53.234;6.568;2024-02-21T14:12:03;11.47;;;7.30;;
52618;SDS011;38513;53.234;6.568;2024-02-21T14:15:11;11.70;;;7.07;;
52618;SDS011;38513;53.234;6.568;2024-02-21T14:17:48;13.27;;;7.40;;
52618;SDS011;38513;53.234;6.568;2024-02-21T14:20:53;11.03;;;6.90;;
52618;SDS011;38513;53.234;6.568;2024-02-21T15:44:13;15.57;;;8.05;;
52618;SDS011;38513;53.234;6.568;2024-02-21T16:08:30;16.83;;;8.57;;
52618;SDS011;38513;53.234;6.568;2024-02-21T16:11:45;17.88;;;8.82;;
52618;SDS011;38513;53.234;6.568;2024-02-21T16:24:10;18.50;;;9.10;;
52618;SDS011;38513;53.234;6.568;2024-02-21T16:26:50;17.27;;;8.77;;
52618;SDS011;38513;53.234;6.568;2024-02-21T16:32:50;18.55;;;8.57;;
52618;SDS011;38513;53.234;6.568;2024-02-21T16:41:53;16.75;;;9.07;;
52618;SDS011;38513;53.234;6.568;2024-02-21T16:50:45;17.38;;;9.32;;
52618;SDS011;38513;53.234;6.568;2024-02-21T16:53:22;18.70;;;9.32;;
52618;SDS011;38513;53.234;6.568;2024-02-21T16:55:51;18.50;;;9.00;;
52618;SDS011;38513;53.234;6.568;2024-02-21T16:58:29;19.35;;;9.98;;
52618;SDS011;38513;53.234;6.568;2024-02-21T17:01:34;15.43;;;9.38;;
52618;SDS011;38513;53.234;6.568;2024-02-21T17:04:11;21.70;;;10.65;;
52618;SDS011;38513;53.234;6.568;2024-02-21T17:07:01;19.02;;;10.23;;
52618;SDS011;38513;53.234;6.568;2024-02-21T17:09:48;17.55;;;10.48;;
52618;SDS011;38513;53.234;6.568;2024-02-21T17:12:54;19.02;;;10.35;;
52618;SDS011;38513;53.234;6.568;2024-02-21T17:16:01;18.25;;;10.27;;
52618;SDS011;38513;53.234;6.568;2024-02-21T17:18:37;19.15;;;9.63;;
52618;SDS011;38513;53.234;6.568;2024-02-21T17:21:24;20.27;;;10.50;;
52618;SDS011;38513;53.234;6.568;2024-02-21T17:24:15;19.00;;;10.23;;
52618;SDS011;38513;53.234;6.568;2024-02-21T17:33:06;17.35;;;10.32;;
52618;SDS011;38513;53.234;6.568;2024-02-21T17:59:04;17.23;;;10.50;;
52618;SDS011;38513;53.234;6.568;2024-02-21T18:01:58;20.48;;;10.65;;
52618;SDS011;38513;53.234;6.568;2024-02-21T18:11:32;18.25;;;10.07;;
52618;SDS011;38513;53.234;6.568;2024-02-21T18:16:55;16.65;;;10.73;;
52618;SDS011;38513;53.234;6.568;2024-02-21T18:19:48;18.38;;;10.60;;
52618;SDS011;38513;53.234;6.568;2024-02-21T18:22:33;15.95;;;10.13;;
52618;SDS011;38513;53.234;6.568;2024-02-21T18:25:15;17.17;;;10.52;;
52618;SDS011;38513;53.234;6.568;2024-02-21T18:27:51;19.95;;;10.57;;
52618;SDS011;38513;53.234;6.568;2024-02-21T18:34:09;18.50;;;11.32;;
52618;SDS011;38513;53.234;6.568;2024-02-21T18:37:00;16.73;;;10.38;;
52618;SDS011;38513;53.234;6.568;2024-02-21T18:39:42;17.33;;;10.15;;
52618;SDS011;38513;53.234;6.568;2024-02-21T18:48:27;16.75;;;9.82;;
52618;SDS011;38513;53.234;6.568;2024-02-21T18:50:59;16.25;;;9.80;;
52618;SDS011;38513;53.234;6.568;2024-02-21T18:56:23;19.48;;;10.30;;
52618;SDS011;38513;53.234;6.568;2024-02-21T18:59:11;16.52;;;8.95;;
52618;SDS011;38513;53.234;6.568;2024-02-21T19:11:40;15.10;;;8.48;;
52618;SDS011;38513;53.234;6.568;2024-02-21T19:14:56;14.32;;;8.43;;
52618;SDS011;38513;53.234;6.568;2024-02-21T19:17:40;12.10;;;7.53;;
52618;SDS011;38513;53.234;6.568;2024-02-21T19:20:51;13.25;;;8.05;;
52618;SDS011;38513;53.234;6.568;2024-02-21T19:23:23;13.02;;;8.25;;
52618;SDS011;38513;53.234;6.568;2024-02-21T19:26:07;13.93;;;8.32;;
52618;SDS011;38513;53.234;6.568;2024-02-21T19:32:29;12.53;;;8.10;;
52618;SDS011;38513;53.234;6.568;2024-02-21T19:34:56;15.30;;;9.10;;
52618;SDS011;38513;53.234;6.568;2024-02-21T19:41:35;13.98;;;9.07;;
52618;SDS011;38513;53.234;6.568;2024-02-21T19:44:15;14.75;;;9.25;;
52618;SDS011;38513;53.234;6.568;2024-02-21T19:49:57;16.40;;;9.77;;
52618;SDS011;38513;53.234;6.568;2024-02-21T19:52:55;14.23;;;9.90;;
52618;SDS011;38513;53.234;6.568;2024-02-21T20:12:00;17.75;;;11.38;;
52618;SDS011;38513;53.234;6.568;2024-02-21T20:17:50;16.75;;;11.38;;
52618;SDS011;38513;53.234;6.568;2024-02-21T20:20:42;15.90;;;10.82;;
52618;SDS011;38513;53.234;6.568;2024-02-21T20:23:19;14.68;;;11.23;;
52618;SDS011;38513;53.234;6.568;2024-02-21T20:26:18;14.90;;;11.07;;
52618;SDS011;38513;53.234;6.568;2024-02-21T20:28:45;15.57;;;10.57;;
52618;SDS011;38513;53.234;6.568;2024-02-21T20:31:20;16.45;;;11.70;;
52618;SDS011;38513;53.234;6.568;2024-02-21T20:34:48;16.30;;;11.63;;
52618;SDS011;38513;53.234;6.568;2024-02-21T20:37:35;17.52;;;12.68;;
52618;SDS011;38513;53.234;6.568;2024-02-21T20:46:53;16.42;;;11.90;;
52618;SDS011;38513;53.234;6.568;2024-02-21T20:49:39;16.48;;;12.35;;
52618;SDS011;38513;53.234;6.568;2024-02-21T20:52:15;15.27;;;12.15;;
52618;SDS011;38513;53.234;6.568;2024-02-21T22:31:33;14.00;;;11.50;;
52618;SDS011;38513;53.234;6.568;2024-02-21T22:34:05;15.82;;;12.32;;
52618;SDS011;38513;53.234;6.568;2024-02-21T22:36:37;13.15;;;11.00;;
52618;SDS011;38513;53.234;6.568;2024-02-21T22:39:05;13.45;;;11.63;;
52618;SDS011;38513;53.234;6.568;2024-02-21T22:41:36;14.15;;;11.05;;
52618;SDS011;38513;53.234;6.568;2024-02-21T22:44:08;14.68;;;11.88;;
52618;SDS011;38513;53.234;6.568;2024-02-21T22:46:49;14.65;;;11.23;;
52618;SDS011;38513;53.234;6.568;2024-02-21T22:49:31;14.68;;;12.27;;
52618;SDS011;38513;53.234;6.568;2024-02-21T22:51:58;14.45;;;11.82;;
52618;SDS011;38513;53.234;6.568;2024-02-21T22:54:29;14.15;;;11.88;;
52618;SDS011;38513;53.234;6.568;2024-02-21T22:57:10;14.80;;;12.20;;
52618;SDS011;38513;53.234;6.568;2024-02-21T23:00:06;15.10;;;11.87;;
52618;SDS011;38513;53.234;6.568;2024-02-21T23:02:58;14.80;;;11.85;;
52618;SDS011;38513;53.234;6.568;2024-02-21T23:05:52;17.08;;;12.48;;
52618;SDS011;38513;53.234;6.568;2024-02-21T23:08:41;14.55;;;11.90;;
52618;SDS011;38513;53.234;6.568;2024-02-21T23:11:15;18.50;;;12.82;;
52618;SDS011;38513;53.234;6.568;2024-02-21T23:14:03;15.60;;;11.82;;
52618;SDS011;38513;53.234;6.568;2024-02-21T23:16:43;14.30;;;11.05;;
52618;SDS011;38513;53.234;6.568;2024-02-21T23:19:21;16.23;;;12.32;;
52618;SDS011;38513;53.234;6.568;2024-02-21T23:21:55;16.23;;;12.15;;
52618;SDS011;38513;53.234;6.568;2024-02-21T23:31:18;12.98;;;9.52;;
52618;SDS011;38513;53.234;6.568;2024-02-21T23:46:00;14.35;;;9.80;;
52618;SDS011;38513;53.234;6.568;2024-02-21T23:48:57;14.07;;;9.77;;
52618;SDS011;38513;53.234;6.568;2024-02-21T23:51:59;10.57;;;7.90;;
52618;SDS011;38513;53.234;6.568;2024-02-21T23:58:01;13.07;;;9.65;;
